createdAt,value
2018-12-17T00:04:21.798Z,100091.00
2018-12-17T00:09:23.021Z,100084.00
2018-12-17T00:14:24.260Z,100088.00
2018-12-17T00:19:25.619Z,100084.00
2018-12-17T00:24:26.998Z,100092.00
2018-12-17T00:29:28.254Z,100089.00
2018-12-17T00:34:29.456Z,100093.00
2018-12-17T00:39:30.664Z,100089.00
2018-12-17T00:44:31.889Z,100095.00
2018-12-17T00:49:33.109Z,100102.00
2018-12-17T00:54:34.323Z,100093.00
2018-12-17T00:59:35.549Z,100108.00
2018-12-17T01:04:36.753Z,100098.00
2018-12-17T01:09:38.089Z,100096.00
2018-12-17T01:14:39.309Z,100113.00
2018-12-17T01:19:40.537Z,100117.00
2018-12-17T01:24:41.765Z,100123.00
2018-12-17T01:29:42.977Z,100129.00
2018-12-17T01:34:44.197Z,100128.00
2018-12-17T01:39:45.617Z,100142.00
2018-12-17T01:44:46.908Z,100130.00
2018-12-17T01:49:48.145Z,100135.00
2018-12-17T01:54:49.364Z,100138.00
2018-12-17T01:59:50.574Z,100137.00
2018-12-17T02:04:52.234Z,100135.00
2018-12-17T02:09:53.438Z,100126.00
2018-12-17T02:14:54.763Z,100119.00
2018-12-17T02:19:56.130Z,100115.00
2018-12-17T02:24:57.469Z,100118.00
2018-12-17T02:29:58.677Z,100111.00
2018-12-17T02:34:59.908Z,100124.00
2018-12-17T02:40:03.929Z,100127.00
2018-12-17T02:45:05.378Z,100136.00
2018-12-17T02:50:06.731Z,100136.00
2018-12-17T02:55:08.070Z,100142.00
2018-12-17T03:00:09.832Z,100159.00
2018-12-17T03:05:11.473Z,100156.00
2018-12-17T03:10:12.698Z,100154.00
2018-12-17T03:15:13.918Z,100168.00
2018-12-17T03:20:15.186Z,100172.00
2018-12-17T03:25:16.404Z,100172.00
2018-12-17T03:30:17.623Z,100179.00
2018-12-17T03:35:19.197Z,100200.00
2018-12-17T03:40:20.428Z,100197.00
2018-12-17T03:45:21.641Z,100210.00
2018-12-17T03:50:22.990Z,100211.00
2018-12-17T03:55:24.225Z,100228.00
2018-12-17T04:00:25.560Z,100226.00
2018-12-17T04:05:26.795Z,100230.00
2018-12-17T04:10:28.009Z,100241.00
2018-12-17T04:15:29.461Z,100246.00
2018-12-17T04:20:30.838Z,100257.00
2018-12-17T04:25:32.200Z,100246.00
2018-12-17T04:30:33.419Z,100244.00
2018-12-17T04:35:34.657Z,100245.00
2018-12-17T04:40:35.885Z,100245.00
2018-12-17T04:45:37.141Z,100254.00
2018-12-17T04:50:38.381Z,100257.00
2018-12-17T04:55:39.600Z,100260.00
2018-12-17T05:00:40.921Z,100260.00
2018-12-17T05:05:42.185Z,100265.00
2018-12-17T05:10:43.405Z,100274.00
2018-12-17T05:15:44.733Z,100273.00
2018-12-17T05:20:45.977Z,100284.00
2018-12-17T05:25:47.314Z,100290.00
2018-12-17T05:30:48.544Z,100300.00
2018-12-17T05:35:50.068Z,100306.00
2018-12-17T05:40:52.187Z,100316.00
2018-12-17T05:45:53.442Z,100310.00
2018-12-17T05:50:54.681Z,100336.00
2018-12-17T05:55:55.910Z,100334.00
2018-12-17T06:00:57.261Z,100326.00
2018-12-17T06:05:58.466Z,100340.00
2018-12-17T06:10:59.879Z,100345.00
2018-12-17T06:16:01.401Z,100347.00
2018-12-17T06:21:02.886Z,100355.00
2018-12-17T06:26:04.108Z,100354.00
2018-12-17T06:31:05.534Z,100363.00
2018-12-17T06:36:06.960Z,100370.00
2018-12-17T06:41:08.496Z,100370.00
2018-12-17T06:46:09.968Z,100372.00
2018-12-17T06:51:11.242Z,100375.00
2018-12-17T06:56:12.436Z,100393.00
2018-12-17T07:01:13.666Z,100391.00
2018-12-17T07:06:14.977Z,100387.00
2018-12-17T07:11:16.213Z,100405.00
2018-12-17T07:16:17.520Z,100419.00
2018-12-17T07:21:18.746Z,100422.00
2018-12-17T07:26:20.195Z,100418.00
2018-12-17T07:31:21.465Z,100440.00
2018-12-17T07:36:22.681Z,100440.00
2018-12-17T07:41:23.926Z,100444.00
2018-12-17T07:46:25.143Z,100460.00
2018-12-17T07:51:26.469Z,100459.00
2018-12-17T07:56:27.801Z,100462.00
2018-12-17T08:01:29.005Z,100474.00
2018-12-17T08:06:30.234Z,100488.00
2018-12-17T08:11:31.470Z,100489.00
2018-12-17T08:16:32.685Z,100511.00
2018-12-17T08:21:33.899Z,100503.00
2018-12-17T08:26:35.108Z,100516.00
2018-12-17T08:31:36.325Z,100532.00
2018-12-17T08:36:37.561Z,100529.00
2018-12-17T08:41:38.798Z,100529.00
2018-12-17T08:46:40.021Z,100525.00
2018-12-17T08:51:41.346Z,100529.00
2018-12-17T08:56:42.589Z,100545.00
2018-12-17T09:01:44.034Z,100542.00
2018-12-17T09:06:45.366Z,100548.00
2018-12-17T09:11:46.585Z,100550.00
2018-12-17T09:16:47.822Z,100561.00
2018-12-17T09:21:49.165Z,100570.00
2018-12-17T09:26:50.422Z,100574.00
2018-12-17T09:31:51.747Z,100594.00
2018-12-17T09:36:52.946Z,100598.00
2018-12-17T09:41:54.158Z,100606.00
2018-12-17T09:46:55.376Z,100616.00
2018-12-17T09:51:56.615Z,100610.00
2018-12-17T09:56:57.921Z,100608.00
2018-12-17T10:01:59.174Z,100617.00
2018-12-17T10:07:00.383Z,100605.00
2018-12-17T10:12:01.661Z,100601.00
2018-12-17T10:17:03.225Z,100588.00
2018-12-17T10:22:04.518Z,100590.00
2018-12-17T10:27:05.749Z,100594.00
2018-12-17T10:32:07.138Z,100611.00
2018-12-17T10:37:08.389Z,100601.00
2018-12-17T10:42:09.726Z,100601.00
2018-12-17T10:47:11.973Z,100604.00
2018-12-17T10:52:13.190Z,100603.00
2018-12-17T10:57:14.412Z,100599.00
2018-12-17T11:02:19.543Z,100604.00
2018-12-17T11:07:20.995Z,100611.00
2018-12-17T11:12:22.363Z,100616.00
2018-12-17T11:17:23.609Z,100626.00
2018-12-17T11:22:24.849Z,100641.00
2018-12-17T11:27:26.197Z,100630.00
2018-12-17T11:32:27.537Z,100628.00
2018-12-17T11:37:28.749Z,100625.00
2018-12-17T11:42:29.969Z,100620.00
2018-12-17T11:47:31.201Z,100611.00
2018-12-17T11:52:32.437Z,100615.00
2018-12-17T12:03:18.823Z,100650.00
2018-12-17T12:08:20.079Z,100645.00
2018-12-17T12:13:21.309Z,100640.00
2018-12-17T12:18:22.542Z,100648.00
2018-12-17T12:23:23.786Z,100658.00
2018-12-17T12:28:25.004Z,100653.00
2018-12-17T12:33:26.213Z,100664.00
2018-12-17T12:38:27.476Z,100663.00
2018-12-17T12:43:28.841Z,100646.00
2018-12-17T12:48:30.078Z,100657.00
2018-12-17T12:53:31.313Z,100660.00
2018-12-17T12:58:32.665Z,100666.00
2018-12-17T13:03:33.888Z,100677.00
2018-12-17T13:08:35.139Z,100673.00
2018-12-17T13:13:36.361Z,100684.00
2018-12-17T13:18:37.719Z,100694.00
2018-12-17T13:23:39.169Z,100698.00
2018-12-17T13:28:40.391Z,100699.00
2018-12-17T13:33:41.920Z,100708.00
2018-12-17T13:38:43.638Z,100702.00
2018-12-17T13:43:45.015Z,100708.00
2018-12-17T13:48:46.307Z,100703.00
2018-12-17T13:53:47.870Z,100734.00
2018-12-17T13:58:49.122Z,100749.00
2018-12-17T14:03:50.399Z,100758.00
2018-12-17T14:08:51.776Z,100772.00
2018-12-17T14:13:53.197Z,100770.00
2018-12-17T14:19:00.506Z,100775.00
2018-12-17T14:24:01.782Z,100774.00
2018-12-17T14:29:03.145Z,100789.00
2018-12-17T14:34:04.386Z,100785.00
2018-12-17T14:39:07.261Z,100787.00
2018-12-17T14:44:14.607Z,100795.00
2018-12-17T14:49:15.889Z,100802.00
2018-12-17T14:54:17.134Z,100805.00
2018-12-17T14:59:18.597Z,100807.00
2018-12-17T15:04:19.978Z,100811.00
2018-12-17T15:09:21.632Z,100819.00
2018-12-17T15:14:23.009Z,100818.00
2018-12-17T15:19:24.488Z,100815.00
2018-12-17T15:24:25.925Z,100816.00
2018-12-17T15:29:27.282Z,100821.00
2018-12-17T15:34:28.777Z,100835.00
2018-12-17T15:39:29.989Z,100852.00
2018-12-17T15:44:31.269Z,100854.00
2018-12-17T15:49:32.765Z,100860.00
2018-12-17T15:54:33.996Z,100879.00
2018-12-17T15:59:35.403Z,100888.00
2018-12-17T16:04:36.746Z,100897.00
2018-12-17T16:09:38.129Z,100916.00
2018-12-17T16:14:39.493Z,100908.00
2018-12-17T16:19:40.808Z,100898.00
2018-12-17T16:24:42.186Z,100911.00
2018-12-17T16:29:43.413Z,100918.00
2018-12-17T16:34:44.667Z,100936.00
2018-12-17T16:39:45.904Z,100923.00
2018-12-17T16:44:47.168Z,100931.00
2018-12-17T16:49:48.410Z,100927.00
2018-12-17T16:54:49.629Z,100939.00
2018-12-17T16:59:50.914Z,100949.00
2018-12-17T17:04:52.267Z,100961.00
2018-12-17T17:09:55.566Z,100951.00
2018-12-17T17:14:56.837Z,100959.00
2018-12-17T17:19:58.097Z,100960.00
2018-12-17T17:24:59.338Z,100960.00
2018-12-17T17:30:00.738Z,100980.00
2018-12-17T17:35:02.679Z,100974.00
2018-12-17T17:40:04.897Z,100992.00
2018-12-17T17:45:06.273Z,100993.00
2018-12-17T17:50:07.628Z,100992.00
2018-12-17T17:55:08.907Z,101005.00
2018-12-17T18:00:10.877Z,101010.00
2018-12-17T18:05:12.558Z,101017.00
2018-12-17T18:10:13.902Z,101016.00
2018-12-17T18:15:15.249Z,101016.00
2018-12-17T18:20:16.630Z,101018.00
2018-12-17T18:25:17.922Z,101026.00
2018-12-17T18:30:19.185Z,101017.00
2018-12-17T18:35:20.458Z,101032.00
2018-12-17T18:40:21.859Z,101046.00
2018-12-17T18:45:23.246Z,101047.00
2018-12-17T18:50:24.489Z,101041.00
2018-12-17T18:55:25.806Z,101054.00
2018-12-17T19:00:27.135Z,101066.00
2018-12-17T19:05:28.415Z,101067.00
2018-12-17T19:10:31.724Z,101070.00
2018-12-17T19:15:32.986Z,101093.00
2018-12-17T19:20:34.249Z,101092.00
2018-12-17T19:25:35.529Z,101096.00
2018-12-17T19:30:36.790Z,101100.00
2018-12-17T19:35:38.091Z,101104.00
2018-12-17T19:40:39.421Z,101095.00
2018-12-17T19:45:40.699Z,101112.00
2018-12-17T19:50:42.090Z,101113.00
2018-12-17T19:55:43.330Z,101123.00
2018-12-17T20:00:44.685Z,101128.00
2018-12-17T20:05:45.992Z,101129.00
2018-12-17T20:10:47.338Z,101120.00
2018-12-17T20:15:48.596Z,101140.00
2018-12-17T20:20:50.001Z,101138.00
2018-12-17T20:25:51.289Z,101154.00
2018-12-17T20:30:52.550Z,101153.00
2018-12-17T20:35:54.290Z,101162.00
2018-12-17T20:40:55.588Z,101160.00
2018-12-17T20:45:56.826Z,101160.00
2018-12-17T20:50:58.134Z,101158.00
2018-12-17T20:55:59.466Z,101158.00
2018-12-17T21:01:00.787Z,101164.00
2018-12-17T21:06:02.307Z,101172.00
2018-12-17T21:11:03.678Z,101176.00
2018-12-17T21:16:04.997Z,101169.00
2018-12-17T21:21:06.347Z,101172.00
2018-12-17T21:26:07.734Z,101153.00
2018-12-17T21:31:09.017Z,101169.00
2018-12-17T21:36:10.267Z,101185.00
2018-12-17T21:41:11.543Z,101180.00
2018-12-17T21:46:12.782Z,101176.00
2018-12-17T21:51:14.021Z,101186.00
2018-12-17T21:56:15.289Z,101187.00
2018-12-17T22:01:16.524Z,101183.00
2018-12-17T22:06:17.765Z,101196.00
2018-12-17T22:11:19.025Z,101193.00
2018-12-17T22:16:20.416Z,101192.00
2018-12-17T22:21:21.669Z,101188.00
2018-12-17T22:26:29.103Z,101198.00
2018-12-17T22:31:26.430Z,101194.00
2018-12-17T22:36:27.675Z,101203.00
2018-12-17T22:41:28.909Z,101207.00
2018-12-17T22:46:30.140Z,101216.00
2018-12-17T22:51:31.398Z,101213.00
2018-12-17T22:56:32.669Z,101222.00
2018-12-17T23:01:34.064Z,101221.00
2018-12-17T23:06:35.316Z,101226.00
2018-12-17T23:12:01.255Z,101229.00
2018-12-17T23:17:21.034Z,101234.00
2018-12-17T23:22:22.260Z,101243.00
2018-12-17T23:27:23.495Z,101232.00
2018-12-17T23:32:30.895Z,101232.00
2018-12-17T23:37:32.143Z,101233.00
2018-12-17T23:42:33.373Z,101230.00
2018-12-17T23:47:34.822Z,101228.00
2018-12-17T23:52:36.067Z,101232.00
2018-12-17T23:57:37.292Z,101230.00
